createdAt,value
2019-02-14T00:04:11.149Z,25.75
2019-02-14T00:09:21.818Z,26.25
2019-02-14T00:14:29.055Z,24.00
2019-02-14T00:19:35.470Z,25.83
2019-02-14T00:24:41.218Z,24.50
2019-02-14T00:29:50.302Z,24.63
2019-02-14T00:34:59.352Z,24.00
2019-02-14T00:40:07.531Z,24.37
2019-02-14T00:45:14.734Z,24.57
2019-02-14T00:50:20.441Z,24.25
2019-02-14T00:55:29.569Z,26.00
2019-02-14T01:00:38.582Z,24.00
2019-02-14T01:05:47.599Z,26.62
2019-02-14T01:10:56.607Z,23.38
2019-02-14T01:16:01.135Z,27.00
2019-02-14T01:21:06.726Z,27.50
2019-02-14T01:26:11.466Z,29.00
2019-02-14T01:31:17.046Z,27.62
2019-02-14T01:36:26.042Z,26.00
2019-02-14T01:41:30.806Z,26.00
2019-02-14T01:46:35.338Z,28.00
2019-02-14T01:51:41.650Z,27.50
2019-02-14T01:56:48.781Z,28.00
2019-02-14T02:01:53.367Z,27.00
2019-02-14T02:06:57.895Z,27.00
2019-02-14T02:12:04.499Z,28.38
2019-02-14T02:17:08.844Z,24.50
2019-02-14T02:22:13.410Z,25.00
2019-02-14T02:27:23.991Z,26.58
2019-02-14T02:32:27.371Z,24.50
2019-02-14T02:37:33.199Z,24.00
2019-02-14T02:42:42.307Z,25.25
2019-02-14T02:47:46.302Z,27.33
2019-02-14T02:52:54.570Z,24.37
2019-02-14T02:58:01.268Z,25.12
2019-02-14T03:03:05.951Z,29.00
2019-02-14T03:08:14.252Z,27.75
2019-02-14T03:13:19.083Z,26.00
2019-02-14T03:18:23.319Z,26.25
2019-02-14T03:23:29.260Z,27.25
2019-02-14T03:28:38.414Z,26.33
2019-02-14T03:33:47.575Z,26.62
2019-02-14T03:38:52.535Z,27.00
2019-02-14T03:43:58.467Z,26.00
2019-02-14T03:49:07.497Z,28.00
2019-02-14T03:54:11.950Z,26.00
2019-02-14T03:59:15.911Z,26.60
2019-02-14T04:04:21.570Z,27.00
2019-02-14T04:09:28.082Z,28.00
2019-02-14T04:14:36.960Z,28.87
2019-02-14T04:19:41.666Z,26.00
2019-02-14T04:24:49.739Z,27.75
2019-02-14T04:29:58.659Z,25.62
2019-02-14T04:35:07.886Z,25.50
2019-02-14T04:40:16.983Z,28.00
2019-02-14T04:45:21.723Z,26.75
2019-02-14T04:50:28.178Z,27.00
2019-02-14T04:55:35.522Z,29.37
2019-02-14T05:00:43.029Z,26.62
2019-02-14T05:05:47.479Z,24.75
2019-02-14T05:10:55.829Z,29.00
2019-02-14T05:16:02.959Z,26.75
2019-02-14T05:21:06.868Z,28.00
2019-02-14T05:26:14.217Z,29.87
2019-02-14T05:31:18.866Z,30.50
2019-02-14T05:36:28.246Z,30.00
2019-02-14T05:41:33.839Z,31.00
2019-02-14T05:46:42.727Z,28.87
2019-02-14T05:51:51.752Z,28.00
2019-02-14T05:56:56.446Z,27.50
2019-02-14T06:02:05.603Z,29.00
2019-02-14T06:07:12.961Z,31.50
2019-02-14T06:12:21.982Z,27.37
2019-02-14T06:17:31.118Z,29.63
2019-02-14T06:22:40.235Z,29.75
2019-02-14T06:27:44.292Z,29.00
2019-02-14T06:32:52.683Z,28.62
2019-02-14T06:38:00.183Z,28.38
2019-02-14T06:43:07.791Z,28.00
2019-02-14T06:48:14.310Z,28.83
2019-02-14T06:53:22.560Z,30.12
2019-02-14T06:58:27.166Z,28.50
2019-02-14T07:03:30.335Z,29.00
2019-02-14T07:08:34.446Z,28.00
2019-02-14T07:13:42.967Z,28.00
2019-02-14T07:18:47.808Z,27.00
2019-02-14T07:23:51.056Z,30.00
2019-02-14T07:28:56.685Z,31.00
2019-02-14T07:34:05.826Z,28.38
2019-02-14T07:39:11.145Z,27.20
2019-02-14T07:44:17.568Z,28.00
2019-02-14T07:49:25.023Z,27.00
2019-02-14T07:54:28.355Z,28.00
2019-02-14T07:59:34.115Z,30.00
2019-02-14T08:04:43.378Z,28.87
2019-02-14T08:09:50.162Z,25.62
2019-02-14T08:14:58.739Z,31.00
2019-02-14T08:20:02.321Z,28.00
2019-02-14T08:25:09.723Z,28.78
2019-02-14T08:30:17.952Z,26.75
2019-02-14T08:35:22.692Z,29.75
2019-02-14T08:40:27.980Z,28.00
2019-02-14T08:45:36.039Z,28.38
2019-02-14T08:50:40.915Z,28.00
2019-02-14T08:55:49.367Z,26.12
2019-02-14T09:00:56.101Z,27.62
2019-02-14T09:06:00.127Z,29.00
2019-02-14T09:11:04.174Z,30.00
2019-02-14T09:16:08.335Z,26.00
2019-02-14T09:21:16.765Z,24.00
2019-02-14T09:26:26.690Z,26.56
2019-02-14T09:31:33.193Z,26.56
2019-02-14T09:36:40.496Z,22.13
2019-02-14T09:41:47.808Z,23.00
2019-02-14T09:46:51.919Z,20.00
2019-02-14T09:51:57.747Z,18.25
2019-02-14T09:57:02.438Z,20.00
2019-02-14T10:02:08.944Z,14.86
2019-02-14T10:07:16.948Z,16.50
2019-02-14T10:12:20.609Z,17.00
2019-02-14T10:17:25.139Z,17.00
2019-02-14T10:22:33.230Z,16.75
2019-02-14T10:27:41.979Z,17.00
2019-02-14T10:32:46.731Z,16.50
2019-02-14T10:37:51.138Z,17.00
2019-02-14T10:42:54.862Z,15.25
2019-02-14T10:48:02.143Z,15.00
2019-02-14T10:53:06.687Z,16.00
2019-02-14T10:58:10.508Z,19.00
2019-02-14T11:03:19.927Z,18.80
2019-02-14T11:08:31.755Z,20.37
2019-02-14T11:13:33.282Z,21.50
2019-02-14T11:18:44.223Z,23.87
2019-02-14T11:23:48.946Z,25.62
2019-02-14T11:28:58.025Z,29.25
2019-02-14T11:34:07.289Z,25.42
2019-02-14T11:39:16.223Z,27.62
2019-02-14T11:44:24.385Z,24.75
2019-02-14T11:49:31.702Z,26.12
2019-02-14T11:54:40.862Z,28.38
2019-02-14T11:59:45.654Z,29.00
2019-02-14T12:04:54.008Z,28.62
2019-02-14T12:10:12.930Z,29.00
2019-02-14T12:15:13.287Z,29.63
2019-02-14T12:20:18.970Z,30.40
2019-02-14T12:25:30.275Z,26.25
2019-02-14T12:30:40.351Z,25.36
2019-02-14T12:35:44.844Z,20.00
2019-02-14T12:40:52.140Z,20.50
2019-02-14T12:45:56.761Z,29.00
2019-02-14T12:51:03.178Z,20.62
2019-02-14T12:56:12.134Z,22.00
2019-02-14T13:01:22.000Z,28.38
2019-02-14T13:06:30.831Z,29.63
2019-02-14T13:11:39.827Z,30.00
2019-02-14T13:16:47.198Z,30.11
2019-02-14T13:21:56.491Z,27.75
2019-02-14T13:27:01.438Z,21.75
2019-02-14T13:32:07.566Z,28.00
2019-02-14T13:37:12.451Z,29.75
2019-02-14T13:42:16.503Z,28.00
2019-02-14T13:47:21.127Z,28.00
2019-02-14T13:52:28.993Z,27.87
2019-02-14T13:57:38.095Z,26.25
2019-02-14T14:02:42.560Z,31.75
2019-02-14T14:07:46.648Z,29.00
2019-02-14T14:12:53.171Z,30.17
2019-02-14T14:17:59.466Z,26.37
2019-02-14T14:23:04.828Z,21.14
2019-02-14T14:28:11.028Z,30.62
2019-02-14T14:33:15.358Z,28.00
2019-02-14T14:38:19.841Z,25.00
2019-02-14T14:43:27.009Z,27.33
2019-02-14T14:48:36.309Z,28.00
2019-02-14T14:53:44.264Z,24.63
2019-02-14T14:58:50.586Z,24.87
2019-02-14T15:03:54.794Z,23.75
2019-02-14T15:09:04.986Z,25.62
2019-02-14T15:14:09.774Z,27.25
2019-02-14T15:19:18.666Z,29.63
2019-02-14T15:24:27.400Z,33.00
2019-02-14T15:29:33.658Z,32.25
2019-02-14T15:34:40.270Z,32.63
2019-02-14T15:39:49.071Z,29.25
2019-02-14T15:44:56.269Z,33.63
2019-02-14T15:50:06.858Z,35.56
2019-02-14T15:55:13.694Z,33.50
2019-02-14T16:00:24.975Z,34.82
2019-02-14T16:05:32.172Z,35.50
2019-02-14T16:10:41.639Z,43.89
2019-02-14T16:15:45.878Z,39.83
2019-02-14T16:20:54.550Z,37.63
2019-02-14T16:26:01.601Z,39.89
2019-02-14T16:31:11.187Z,39.56
2019-02-14T16:36:18.697Z,35.78
2019-02-14T16:41:30.235Z,39.22
2019-02-14T16:46:38.241Z,43.89
2019-02-14T16:51:49.183Z,38.78
2019-02-14T16:57:00.135Z,42.14
2019-02-14T17:02:09.640Z,39.67
2019-02-14T17:07:20.556Z,44.89
2019-02-14T17:12:28.312Z,39.89
2019-02-14T17:17:39.486Z,40.70
2019-02-14T17:22:44.811Z,44.14
2019-02-14T17:27:55.404Z,50.00
2019-02-14T17:33:04.161Z,48.60
2019-02-14T17:38:14.552Z,49.70
2019-02-14T17:43:24.928Z,48.10
2019-02-14T17:48:33.471Z,46.40
2019-02-14T17:53:40.047Z,43.71
2019-02-14T17:58:50.591Z,41.11
2019-02-14T18:03:58.514Z,42.44
2019-02-14T18:09:08.861Z,47.70
2019-02-14T18:14:12.267Z,46.00
2019-02-14T18:19:15.867Z,45.00
2019-02-14T18:24:23.783Z,42.89
2019-02-14T18:29:33.355Z,48.22
2019-02-14T18:34:45.978Z,47.00
2019-02-14T18:39:48.873Z,45.00
2019-02-14T18:44:59.249Z,49.00
2019-02-14T18:50:08.470Z,48.40
2019-02-14T18:55:19.167Z,42.33
2019-02-14T19:00:27.094Z,45.89
2019-02-14T19:05:36.610Z,43.67
2019-02-14T19:10:47.008Z,49.30
2019-02-14T19:15:54.988Z,46.67
2019-02-14T19:21:07.248Z,42.20
2019-02-14T19:26:17.530Z,43.44
2019-02-14T19:31:20.520Z,44.00
2019-02-14T19:36:31.356Z,45.67
2019-02-14T19:41:40.494Z,39.00
2019-02-14T19:46:51.191Z,43.20
2019-02-14T19:51:56.185Z,50.43
2019-02-14T19:57:03.908Z,41.11
2019-02-14T20:02:14.642Z,47.33
2019-02-14T20:07:19.663Z,43.50
2019-02-14T20:12:27.229Z,48.89
2019-02-14T20:17:35.428Z,48.33
2019-02-14T20:22:43.472Z,43.33
2019-02-14T20:27:53.361Z,46.00
2019-02-14T20:33:05.053Z,48.70
2019-02-14T20:38:13.950Z,48.80
2019-02-14T20:43:24.061Z,49.00
2019-02-14T20:48:32.396Z,41.00
2019-02-14T20:53:43.207Z,52.20
2019-02-14T20:58:46.606Z,43.00
2019-02-14T21:03:57.286Z,38.78
2019-02-14T21:09:06.489Z,37.22
2019-02-14T21:14:19.310Z,43.33
2019-02-14T21:19:31.121Z,46.00
2019-02-14T21:24:40.080Z,38.30
2019-02-14T21:29:49.656Z,37.38
2019-02-14T21:34:58.300Z,38.80
2019-02-14T21:40:05.823Z,36.25
2019-02-14T21:45:11.056Z,40.00
2019-02-14T21:50:19.871Z,40.80
2019-02-14T21:55:29.926Z,41.89
2019-02-14T22:00:37.191Z,37.11
2019-02-14T22:05:42.158Z,41.29
2019-02-14T22:10:45.031Z,39.00
2019-02-14T22:15:48.854Z,41.00
2019-02-14T22:20:57.205Z,40.67
2019-02-14T22:26:08.411Z,42.50
2019-02-14T22:31:11.819Z,37.00
2019-02-14T22:36:21.913Z,42.67
2019-02-14T22:41:32.026Z,36.67
2019-02-14T22:46:37.167Z,35.00
2019-02-14T22:51:45.567Z,33.63
2019-02-14T22:56:52.284Z,38.63
2019-02-14T23:02:00.347Z,69.60
2019-02-14T23:07:04.095Z,31.75
2019-02-14T23:12:12.887Z,32.38
2019-02-14T23:17:19.548Z,32.50
2019-02-14T23:22:23.762Z,34.67
2019-02-14T23:27:30.492Z,32.38
2019-02-14T23:32:37.569Z,34.00
2019-02-14T23:37:47.994Z,35.56
2019-02-14T23:42:52.886Z,32.43
2019-02-14T23:47:59.681Z,34.25
2019-02-14T23:53:07.907Z,32.44
2019-02-14T23:58:17.907Z,33.00
